createdAt,value
2024-02-15T00:01:28.790Z,98491.38
2024-02-15T00:04:30.794Z,98481.66
2024-02-15T00:07:32.739Z,98488.91
2024-02-15T00:10:35.617Z,98487.19
2024-02-15T00:13:37.848Z,98482.66
2024-02-15T00:16:40.935Z,98488.00
2024-02-15T00:19:43.527Z,98481.66
2024-02-15T00:22:45.432Z,98488.56
2024-02-15T00:25:47.259Z,98496.56
2024-02-15T00:28:50.534Z,98483.22
2024-02-15T00:31:53.789Z,98491.06
2024-02-15T00:34:56.147Z,98487.63
2024-02-15T00:37:58.680Z,98497.50
2024-02-15T00:41:00.357Z,98479.84
2024-02-15T00:44:02.114Z,98492.00
2024-02-15T00:47:06.272Z,98489.34
2024-02-15T00:50:09.023Z,98485.91
2024-02-15T00:53:10.897Z,98492.75
2024-02-15T00:56:12.714Z,98487.34
2024-02-15T00:59:14.397Z,98493.69
2024-02-15T01:02:19.207Z,98500.94
2024-02-15T01:05:21.392Z,98502.69
2024-02-15T01:08:23.210Z,98495.44
2024-02-15T01:11:25.001Z,98497.28
2024-02-15T01:14:31.247Z,98493.75
2024-02-15T01:17:34.579Z,98498.22
2024-02-15T01:20:37.454Z,98491.06
2024-02-15T01:23:39.507Z,98503.53
2024-02-15T01:26:41.261Z,98498.22
2024-02-15T01:29:43.971Z,98498.09
2024-02-15T01:32:47.286Z,98483.91
2024-02-15T01:35:49.775Z,98492.88
2024-02-15T01:38:51.904Z,98484.97
2024-02-15T01:41:57.009Z,98478.69
2024-02-15T01:44:58.888Z,98482.38
2024-02-15T01:48:05.090Z,98486.84
2024-02-15T01:51:08.274Z,98489.34
2024-02-15T01:54:10.392Z,98489.34
2024-02-15T01:57:12.561Z,98491.16
2024-02-15T02:00:15.147Z,98471.56
2024-02-15T02:03:19.020Z,98475.94
2024-02-15T02:06:20.763Z,98473.28
2024-02-15T02:09:23.284Z,98483.94
2024-02-15T02:12:28.879Z,98477.75
2024-02-15T02:15:32.644Z,98483.94
2024-02-15T02:18:36.100Z,98481.34
2024-02-15T02:21:39.909Z,98482.09
2024-02-15T02:24:50.100Z,98479.34
2024-02-15T02:27:53.227Z,98477.63
2024-02-15T02:30:55.009Z,98468.75
2024-02-15T02:33:59.903Z,98473.28
2024-02-15T02:37:03.806Z,98476.88
2024-02-15T02:40:06.157Z,98472.41
2024-02-15T02:43:09.420Z,98467.06
2024-02-15T02:46:11.915Z,98480.38
2024-02-15T02:49:13.860Z,98475.91
2024-02-15T02:52:15.771Z,98466.97
2024-02-15T02:55:17.759Z,98471.44
2024-02-15T02:58:20.922Z,98476.75
2024-02-15T03:01:23.722Z,98471.44
2024-02-15T03:04:25.580Z,98476.88
2024-02-15T03:07:27.917Z,98476.88
2024-02-15T03:10:29.612Z,98470.69
2024-02-15T03:13:32.697Z,98472.28
2024-02-15T03:16:37.308Z,98463.34
2024-02-15T03:19:39.099Z,98473.16
2024-02-15T03:22:40.817Z,98474.88
2024-02-15T03:25:42.780Z,98474.03
2024-02-15T03:28:45.974Z,98473.16
2024-02-15T03:31:49.016Z,98472.38
2024-02-15T03:34:50.721Z,98473.22
2024-02-15T03:37:52.779Z,98480.22
2024-02-15T03:40:55.868Z,98483.81
2024-02-15T03:44:00.429Z,98482.00
2024-02-15T03:47:02.212Z,98480.91
2024-02-15T03:50:04.452Z,98481.78
2024-02-15T03:53:09.495Z,98485.19
2024-02-15T03:56:11.363Z,98482.66
2024-02-15T03:59:14.559Z,98484.38
2024-02-15T04:02:16.348Z,98484.25
2024-02-15T04:05:19.905Z,98485.13
2024-02-15T04:08:22.093Z,98479.78
2024-02-15T04:11:23.734Z,98480.66
2024-02-15T04:14:26.789Z,98487.72
2024-02-15T04:17:28.606Z,98480.56
2024-02-15T04:20:30.583Z,98480.50
2024-02-15T04:23:33.123Z,98487.56
2024-02-15T04:26:34.968Z,98488.41
2024-02-15T04:29:41.294Z,98491.00
2024-02-15T04:32:43.042Z,98483.09
2024-02-15T04:35:45.217Z,98489.28
2024-02-15T04:38:51.457Z,98489.34
2024-02-15T04:41:53.388Z,98483.16
2024-02-15T04:44:57.649Z,98488.41
2024-02-15T04:48:03.035Z,98494.53
2024-02-15T04:51:05.266Z,98493.75
2024-02-15T04:54:08.411Z,98482.06
2024-02-15T04:57:13.095Z,98483.75
2024-02-15T05:00:16.991Z,98483.88
2024-02-15T05:03:18.789Z,98476.69
2024-02-15T05:06:20.534Z,98467.88
2024-02-15T05:09:23.929Z,98467.00
2024-02-15T05:12:25.785Z,98477.66
2024-02-15T05:15:28.961Z,98476.97
2024-02-15T05:18:31.908Z,98482.28
2024-02-15T05:21:34.963Z,98476.03
2024-02-15T05:24:36.843Z,98468.81
2024-02-15T05:27:38.631Z,98479.41
2024-02-15T05:30:41.600Z,98479.72
2024-02-15T05:33:45.250Z,98477.75
2024-02-15T05:36:49.272Z,98483.16
2024-02-15T05:39:54.908Z,98479.63
2024-02-15T05:42:57.112Z,98481.34
2024-02-15T05:46:01.071Z,98484.72
2024-02-15T05:49:05.878Z,98477.81
2024-02-15T05:52:07.893Z,98478.91
2024-02-15T05:55:09.549Z,98483.50
2024-02-15T05:58:12.275Z,98483.59
2024-02-15T06:01:15.436Z,98487.97
2024-02-15T06:04:18.085Z,98479.03
2024-02-15T06:07:20.241Z,98485.25
2024-02-15T06:10:21.949Z,98489.59
2024-02-15T06:13:23.974Z,98488.84
2024-02-15T06:16:27.344Z,98484.53
2024-02-15T06:19:29.237Z,98491.66
2024-02-15T06:22:31.891Z,98483.81
2024-02-15T06:25:33.584Z,98480.06
2024-02-15T06:28:53.577Z,98483.75
2024-02-15T06:32:15.200Z,98479.44
2024-02-15T06:35:35.329Z,98484.84
2024-02-15T06:38:57.301Z,98494.56
2024-02-15T06:41:58.967Z,98478.50
2024-02-15T06:45:00.690Z,98479.19
2024-02-15T06:48:04.252Z,98476.75
2024-02-15T06:51:06.974Z,98467.91
2024-02-15T06:54:09.013Z,98468.88
2024-02-15T06:57:10.945Z,98462.84
2024-02-15T07:00:16.976Z,98467.38
2024-02-15T07:03:20.258Z,98468.41
2024-02-15T07:06:22.958Z,98475.66
2024-02-15T07:09:25.812Z,98473.16
2024-02-15T07:12:27.635Z,98473.16
2024-02-15T07:15:29.446Z,98475.72
2024-02-15T07:18:32.565Z,98482.78
2024-02-15T07:21:34.225Z,98472.06
2024-02-15T07:24:36.639Z,98464.91
2024-02-15T07:27:38.387Z,98463.16
2024-02-15T07:30:40.200Z,98467.47
2024-02-15T07:33:44.524Z,98461.25
2024-02-15T07:36:47.729Z,98451.38
2024-02-15T07:39:49.423Z,98457.59
2024-02-15T07:42:53.200Z,98462.75
2024-02-15T07:45:54.853Z,98479.63
2024-02-15T07:48:58.384Z,98478.69
2024-02-15T07:52:01.723Z,98471.63
2024-02-15T07:55:06.922Z,98474.28
2024-02-15T07:58:08.574Z,98472.56
2024-02-15T08:01:10.625Z,98470.69
2024-02-15T08:04:16.069Z,98483.03
2024-02-15T08:07:21.736Z,98481.22
2024-02-15T08:10:23.353Z,98474.16
2024-02-15T08:13:29.410Z,98479.50
2024-02-15T08:16:31.145Z,98479.50
2024-02-15T08:19:34.338Z,98466.09
2024-02-15T08:22:36.365Z,98465.94
2024-02-15T08:25:39.217Z,98469.31
2024-02-15T08:28:40.802Z,98464.66
2024-02-15T08:31:42.787Z,98466.38
2024-02-15T08:34:45.855Z,98472.41
2024-02-15T08:37:49.506Z,98466.91
2024-02-15T08:40:51.418Z,98466.91
2024-02-15T08:43:54.246Z,98461.38
2024-02-15T08:46:56.936Z,98458.41
2024-02-15T08:50:00.356Z,98456.34
2024-02-15T08:53:02.881Z,98449.03
2024-02-15T08:56:04.837Z,98448.91
2024-02-15T08:59:06.564Z,98446.94
2024-02-15T09:02:08.233Z,98448.47
2024-02-15T09:05:11.386Z,98440.47
2024-02-15T09:08:14.005Z,98439.53
2024-02-15T09:11:15.883Z,98435.91
2024-02-15T09:14:17.437Z,98436.69
2024-02-15T09:17:19.099Z,98432.13
2024-02-15T09:20:22.215Z,98428.44
2024-02-15T09:23:24.911Z,98433.56
2024-02-15T09:26:26.929Z,98439.69
2024-02-15T09:29:28.696Z,98437.00
2024-02-15T09:32:30.323Z,98437.00
2024-02-15T09:35:33.396Z,98445.97
2024-02-15T09:38:35.141Z,98447.69
2024-02-15T09:41:36.914Z,98453.03
2024-02-15T09:44:38.806Z,98464.72
2024-02-15T09:47:43.569Z,98459.53
2024-02-15T09:50:49.707Z,98457.72
2024-02-15T09:53:51.484Z,98459.59
2024-02-15T09:56:53.648Z,98458.13
2024-02-15T09:59:55.577Z,98467.16
2024-02-15T10:02:57.737Z,98467.28
2024-02-15T10:06:01.027Z,98454.97
2024-02-15T10:09:21.422Z,98458.50
2024-02-15T10:12:23.523Z,98463.75
2024-02-15T10:15:32.088Z,98464.53
2024-02-15T10:18:35.109Z,98469.81
2024-02-15T10:21:40.050Z,98464.31
2024-02-15T10:24:42.273Z,98467.69
2024-02-15T10:27:47.747Z,98470.28
2024-02-15T10:30:51.384Z,98463.22
2024-02-15T10:33:53.807Z,98461.50
2024-02-15T10:37:11.093Z,98465.25
2024-02-15T10:40:14.566Z,98455.66
2024-02-15T10:43:17.885Z,98448.59
2024-02-15T10:46:20.425Z,98456.47
2024-02-15T10:49:23.292Z,98452.88
2024-02-15T10:52:31.497Z,98454.50
2024-02-15T10:55:37.245Z,98459.53
2024-02-15T10:58:45.397Z,98460.88
2024-02-15T11:01:51.596Z,98465.28
2024-02-15T11:04:57.650Z,98456.56
2024-02-15T11:08:01.098Z,98459.38
2024-02-15T11:11:06.002Z,98455.03
2024-02-15T11:14:26.645Z,98459.84
2024-02-15T11:17:50.407Z,98455.81
2024-02-15T11:20:54.170Z,98449.03
2024-02-15T11:23:57.427Z,98443.16
2024-02-15T11:26:59.608Z,98444.16
2024-02-15T11:30:11.515Z,98448.69
2024-02-15T11:33:28.179Z,98445.31
2024-02-15T11:36:33.977Z,98445.38
2024-02-15T11:39:45.044Z,98439.25
2024-02-15T11:42:47.474Z,98415.38
2024-02-15T11:45:53.064Z,98408.31
2024-02-15T11:48:55.694Z,98391.53
2024-02-15T11:51:58.768Z,98392.47
2024-02-15T11:55:11.216Z,98381.91
2024-02-15T11:58:15.770Z,98377.59
2024-02-15T12:01:36.193Z,98382.84
2024-02-15T12:04:58.432Z,98388.25
2024-02-15T12:08:18.950Z,98385.50
2024-02-15T12:11:40.540Z,98392.56
2024-02-15T12:15:00.867Z,98371.22
2024-02-15T12:18:34.197Z,98372.09
2024-02-15T12:21:37.091Z,98353.41
2024-02-15T12:24:38.862Z,98349.88
2024-02-15T12:27:44.199Z,98341.81
2024-02-15T12:30:45.995Z,98345.25
2024-02-15T12:33:50.006Z,98349.66
2024-02-15T12:36:53.663Z,98321.91
2024-02-15T12:39:55.412Z,98314.53
2024-02-15T12:42:58.556Z,98303.59
2024-02-15T12:46:00.738Z,98315.59
2024-02-15T12:49:14.780Z,98327.50
2024-02-15T12:52:36.816Z,98328.06
2024-02-15T12:55:39.440Z,98331.38
2024-02-15T12:58:44.648Z,98333.00
2024-02-15T13:01:47.983Z,98335.59
2024-02-15T13:04:49.864Z,98330.06
2024-02-15T13:07:52.048Z,98329.03
2024-02-15T13:10:54.037Z,98335.25
2024-02-15T13:13:57.966Z,98332.44
2024-02-15T13:17:00.195Z,98327.88
2024-02-15T13:20:13.967Z,98341.06
2024-02-15T13:23:24.112Z,98340.09
2024-02-15T13:26:26.955Z,98335.56
2024-02-15T13:29:30.307Z,98337.31
2024-02-15T13:32:32.046Z,98326.63
2024-02-15T13:35:33.991Z,98323.94
2024-02-15T13:38:38.066Z,98316.88
2024-02-15T13:41:39.944Z,98304.31
2024-02-15T13:44:43.215Z,98308.72
2024-02-15T13:47:48.805Z,98309.47
2024-02-15T13:50:54.076Z,98308.53
2024-02-15T13:53:57.511Z,98306.72
2024-02-15T13:56:59.332Z,98295.00
2024-02-15T14:00:02.669Z,98295.81
2024-02-15T14:03:16.799Z,98293.84
2024-02-15T14:06:18.955Z,98291.94
2024-02-15T14:09:20.886Z,98301.75
2024-02-15T14:12:22.548Z,98304.50
2024-02-15T14:15:25.990Z,98319.84
2024-02-15T14:18:29.393Z,98312.84
2024-02-15T14:21:34.107Z,98300.34
2024-02-15T14:24:35.738Z,98308.44
2024-02-15T14:27:38.705Z,98303.88
2024-02-15T14:31:00.295Z,98297.69
2024-02-15T14:34:02.061Z,98305.69
2024-02-15T14:37:07.188Z,98303.88
2024-02-15T14:40:09.558Z,98301.06
2024-02-15T14:46:20.611Z,98288.41
2024-02-15T14:49:23.735Z,98287.47
2024-02-15T14:52:25.746Z,98295.47
2024-02-15T14:55:27.607Z,98291.84
2024-02-15T14:58:29.356Z,98284.69
2024-02-15T15:01:32.390Z,98289.19
2024-02-15T15:04:48.396Z,98288.31
2024-02-15T15:08:08.695Z,98292.72
2024-02-15T15:11:29.307Z,98285.56
2024-02-15T15:14:31.038Z,98285.56
2024-02-15T15:17:35.317Z,98285.41
2024-02-15T15:20:38.417Z,98281.78
2024-02-15T15:23:40.627Z,98278.25
2024-02-15T15:26:42.588Z,98278.25
2024-02-15T15:29:44.408Z,98278.19
2024-02-15T15:32:47.758Z,98269.44
2024-02-15T15:35:50.093Z,98264.09
2024-02-15T15:38:52.192Z,98271.25
2024-02-15T15:41:57.092Z,98275.66
2024-02-15T15:44:58.826Z,98263.34
2024-02-15T15:48:02.112Z,98270.41
2024-02-15T15:51:06.468Z,98263.19
2024-02-15T15:54:09.173Z,98268.66
2024-02-15T15:57:10.876Z,98264.28
2024-02-15T16:00:17.390Z,98265.13
2024-02-15T16:03:21.896Z,98265.22
2024-02-15T16:06:23.772Z,98259.13
2024-02-15T16:09:25.635Z,98252.16
2024-02-15T16:12:27.569Z,98245.22
2024-02-15T16:15:29.858Z,98253.22
2024-02-15T16:18:33.482Z,98249.53
2024-02-15T16:21:35.398Z,98248.66
2024-02-15T16:24:37.150Z,98254.88
2024-02-15T16:27:39.775Z,98259.22
2024-02-15T16:30:41.465Z,98250.41
2024-02-15T16:33:44.738Z,98254.88
2024-02-15T16:36:46.700Z,98251.28
2024-02-15T16:39:48.393Z,98245.75
2024-02-15T16:42:50.071Z,98243.19
2024-02-15T16:45:51.832Z,98241.47
2024-02-15T16:48:57.231Z,98230.84
2024-02-15T16:51:59.178Z,98242.16
2024-02-15T16:55:01.731Z,98236.03
2024-02-15T16:58:04.688Z,98234.03
2024-02-15T17:01:06.927Z,98243.88
2024-02-15T17:04:10.531Z,98241.28
2024-02-15T17:07:12.346Z,98235.16
2024-02-15T17:10:14.169Z,98242.16
2024-02-15T17:13:15.940Z,98240.44
2024-02-15T17:16:20.769Z,98242.16
2024-02-15T17:19:25.670Z,98239.75
2024-02-15T17:22:29.018Z,98238.84
2024-02-15T17:25:30.715Z,98232.50
2024-02-15T17:28:32.408Z,98248.53
2024-02-15T17:31:34.603Z,98241.38
2024-02-15T17:34:37.627Z,98238.16
2024-02-15T17:37:39.430Z,98241.50
2024-02-15T17:40:43.424Z,98248.63
2024-02-15T17:43:45.616Z,98240.84
2024-02-15T17:46:47.473Z,98239.28
2024-02-15T17:49:50.443Z,98237.56
2024-02-15T17:52:52.493Z,98257.03
2024-02-15T17:55:57.293Z,98259.00
2024-02-15T17:58:58.924Z,98249.88
2024-02-15T18:02:00.827Z,98246.44
2024-02-15T18:05:08.766Z,98251.06
2024-02-15T18:08:12.518Z,98238.44
2024-02-15T18:11:14.668Z,98241.09
2024-02-15T18:14:17.876Z,98247.13
2024-02-15T18:17:20.041Z,98243.59
2024-02-15T18:20:23.992Z,98240.91
2024-02-15T18:23:25.680Z,98232.59
2024-02-15T18:26:27.371Z,98228.44
2024-02-15T18:29:29.045Z,98232.38
2024-02-15T18:32:30.696Z,98235.38
2024-02-15T18:35:35.222Z,98241.31
2024-02-15T18:38:37.120Z,98236.78
2024-02-15T18:41:39.919Z,98233.19
2024-02-15T18:44:41.674Z,98226.88
2024-02-15T18:47:43.493Z,98233.00
2024-02-15T18:50:46.911Z,98240.06
2024-02-15T18:53:49.673Z,98244.81
2024-02-15T18:56:56.211Z,98231.44
2024-02-15T18:59:59.631Z,98227.84
2024-02-15T19:03:02.953Z,98219.09
2024-02-15T19:06:06.519Z,98213.78
2024-02-15T19:09:08.377Z,98218.50
2024-02-15T19:12:10.383Z,98218.88
2024-02-15T19:15:12.169Z,98233.84
2024-02-15T19:18:13.945Z,98229.38
2024-02-15T19:21:17.081Z,98218.44
2024-02-15T19:24:21.406Z,98220.41
2024-02-15T19:27:23.767Z,98208.78
2024-02-15T19:30:26.819Z,98200.97
2024-02-15T19:33:33.748Z,98200.78
2024-02-15T19:36:43.778Z,98189.00
2024-02-15T19:39:50.066Z,98188.81
2024-02-15T19:42:51.783Z,98192.09
2024-02-15T19:45:56.184Z,98189.09
2024-02-15T19:48:57.881Z,98182.78
2024-02-15T19:52:02.119Z,98171.44
2024-02-15T19:55:04.342Z,98167.72
2024-02-15T19:58:05.982Z,98172.13
2024-02-15T20:01:07.659Z,98155.47
2024-02-15T20:04:09.589Z,98143.06
2024-02-15T20:07:12.810Z,98151.34
2024-02-15T20:10:14.673Z,98162.97
2024-02-15T20:13:16.360Z,98160.63
2024-02-15T20:16:22.939Z,98150.69
2024-02-15T20:19:26.996Z,98143.09
2024-02-15T20:22:30.350Z,98154.44
2024-02-15T20:25:32.068Z,98154.63
2024-02-15T20:28:33.717Z,98155.75
2024-02-15T20:31:35.614Z,98146.03
2024-02-15T20:34:37.857Z,98144.44
2024-02-15T20:37:40.947Z,98143.78
2024-02-15T20:40:42.763Z,98141.19
2024-02-15T20:43:44.368Z,98140.25
2024-02-15T20:46:46.095Z,98141.19
2024-02-15T20:49:47.933Z,98144.09
2024-02-15T20:52:50.938Z,98143.22
2024-02-15T20:55:52.824Z,98136.19
2024-02-15T20:58:54.603Z,98129.22
2024-02-15T21:01:56.420Z,98147.22
2024-02-15T21:04:58.069Z,98144.63
2024-02-15T21:08:01.087Z,98142.38
2024-02-15T21:11:02.813Z,98154.09
2024-02-15T21:14:04.547Z,98152.53
2024-02-15T21:17:08.002Z,98144.13
2024-02-15T21:20:13.318Z,98139.78
2024-02-15T21:23:16.479Z,98142.81
2024-02-15T21:26:18.222Z,98134.22
2024-02-15T21:29:21.088Z,98136.88
2024-02-15T21:32:22.717Z,98125.94
2024-02-15T21:35:25.615Z,98124.31
2024-02-15T21:38:28.730Z,98126.03
2024-02-15T21:41:30.434Z,98116.56
2024-02-15T21:44:32.085Z,98112.94
2024-02-15T21:47:34.572Z,98117.84
2024-02-15T21:50:36.270Z,98114.16
2024-02-15T21:53:42.158Z,98117.66
2024-02-15T21:56:43.941Z,98107.84
2024-02-15T21:59:45.629Z,98092.63
2024-02-15T22:02:47.295Z,98077.81
2024-02-15T22:05:49.316Z,98082.63
2024-02-15T22:08:52.477Z,98088.91
2024-02-15T22:11:55.063Z,98099.69
2024-02-15T22:14:56.750Z,98091.03
2024-02-15T22:17:59.549Z,98102.16
2024-02-15T22:21:03.195Z,98094.75
2024-02-15T22:24:09.186Z,98093.47
2024-02-15T22:27:11.495Z,98090.81
2024-02-15T22:30:14.004Z,98090.28
2024-02-15T22:33:16.844Z,98094.66
2024-02-15T22:36:22.507Z,98089.06
2024-02-15T22:39:25.665Z,98093.47
2024-02-15T22:42:27.691Z,98091.56
2024-02-15T22:45:29.931Z,98087.25
2024-02-15T22:48:31.673Z,98085.97
2024-02-15T22:51:37.599Z,98091.25
2024-02-15T22:54:42.927Z,98078.06
2024-02-15T22:57:44.533Z,98069.97
2024-02-15T23:00:46.211Z,98069.47
2024-02-15T23:03:47.845Z,98073.50
2024-02-15T23:06:49.550Z,98076.75
2024-02-15T23:09:54.193Z,98071.09
2024-02-15T23:12:55.856Z,98075.97
2024-02-15T23:16:00.628Z,98077.03
2024-02-15T23:19:02.526Z,98066.34
2024-02-15T23:22:04.622Z,98069.69
2024-02-15T23:25:08.150Z,98062.72
2024-02-15T23:28:10.278Z,98070.91
2024-02-15T23:31:13.457Z,98072.44
2024-02-15T23:34:15.305Z,98067.22
2024-02-15T23:37:35.666Z,98058.28
2024-02-15T23:40:38.566Z,98056.56
2024-02-15T23:43:40.240Z,98050.06
2024-02-15T23:46:41.882Z,98061.81
2024-02-15T23:49:43.768Z,98064.47
2024-02-15T23:52:47.051Z,98060.66
2024-02-15T23:55:50.098Z,98058.28
2024-02-15T23:58:52.276Z,98053.31
